Terminal Aerodrome Forecast
Issued by NWS

Home | Current Version | Previous Version | Text Only | Print | Product List | Glossary On
Versions: 1 2 3 4 5 6 7 8 9 10 11 12
299
FTUS45 KVEF 141720
TAFEED
TAF
KEED 141720Z 1418/1518 01011KT P6SM SCT250
     FM141900 36018G28KT P6SM BKN250
     FM150200 36014G22KT P6SM SCT250=

USA.gov is the U.S. government's official web portal to all federal, state and local government web resources and services.